Time;durP1;ratioP1;P1;durP2;ratioP2;P2;SDS_P1;SDS_P2;PMS_P1;PMS_P2;Temp;Humidity;BMP_temperature;BMP_pressure;BME280_temperature;BME280_humidity;BME280_pressure;Samples;Min_cycle;Max_cycle;Signal;HPM_P1;HPM_P2
2022/05/17 00:01:57;;;;;;;3.97;1.60;;;24.10;52.90;;;;;;5094390;28;20454;-65
2022/05/17 00:04:23;;;;;;;3.55;1.50;;;24.10;52.90;;;;;;5094806;28;20476;-65
2022/05/17 00:06:49;;;;;;;2.92;1.60;;;24.10;52.90;;;;;;5094678;28;20422;-65
2022/05/17 00:09:16;;;;;;;2.40;1.52;;;24.00;52.90;;;;;;5094764;28;20432;-65
2022/05/17 00:11:44;;;;;;;2.10;1.30;;;24.10;52.90;;;;;;5094284;28;20414;-65
2022/05/17 00:14:10;;;;;;;1.98;1.45;;;24.00;52.90;;;;;;5094354;28;20481;-65
2022/05/17 00:16:36;;;;;;;4.68;1.45;;;24.00;52.80;;;;;;5093179;28;20386;-65
2022/05/17 00:19:02;;;;;;;5.63;1.50;;;24.00;52.80;;;;;;5093267;28;20517;-65
2022/05/17 00:21:27;;;;;;;2.60;1.30;;;24.00;52.80;;;;;;5094400;28;20394;-65
2022/05/17 00:23:53;;;;;;;3.03;1.40;;;24.00;52.80;;;;;;5093944;28;20386;-65
2022/05/17 00:26:19;;;;;;;3.90;1.30;;;24.00;52.80;;;;;;5094393;28;20386;-65
2022/05/17 00:28:44;;;;;;;2.23;1.40;;;24.00;52.80;;;;;;5094343;28;20576;-65
2022/05/17 00:31:10;;;;;;;3.53;1.55;;;24.00;52.80;;;;;;5094197;28;20389;-65
2022/05/17 00:33:36;;;;;;;1.80;1.40;;;24.00;53.30;;;;;;5094123;28;20439;-65
2022/05/17 00:36:03;;;;;;;2.50;1.40;;;24.00;52.60;;;;;;5093715;28;20820;-65
2022/05/17 00:38:29;;;;;;;2.90;1.48;;;24.00;52.60;;;;;;5094061;28;20754;-65
2022/05/17 00:40:55;;;;;;;2.40;1.50;;;24.00;52.70;;;;;;5094012;28;20390;-65
2022/05/17 00:43:26;;;;;;;2.90;1.20;;;24.00;52.70;;;;;;5093953;28;20382;-65
2022/05/17 00:45:53;;;;;;;2.90;1.40;;;24.00;52.80;;;;;;5093530;28;20447;-64
2022/05/17 00:48:20;;;;;;;3.25;1.35;;;24.00;52.60;;;;;;5093958;28;20378;-65
2022/05/17 00:50:49;;;;;;;3.10;1.45;;;24.00;52.70;;;;;;5093633;28;20440;-65
2022/05/17 00:53:26;;;;;;;1.90;1.15;;;23.90;52.70;;;;;;5093798;28;20410;-65
2022/05/17 00:55:59;;;;;;;2.80;1.40;;;23.90;52.60;;;;;;5092138;28;20405;-65
2022/05/17 00:58:28;;;;;;;2.03;1.25;;;23.90;52.70;;;;;;5093816;28;20436;-65
2022/05/17 01:01:07;;;;;;;1.65;1.15;;;23.90;52.60;;;;;;5091963;28;20397;-65
2022/05/17 01:03:58;;;;;;;1.98;1.30;;;23.90;52.70;;;;;;5092182;28;20416;-65
2022/05/17 01:06:27;;;;;;;2.72;1.30;;;23.90;52.60;;;;;;5054718;28;20390;-64
2022/05/17 01:08:53;;;;;;;1.63;1.20;;;23.90;52.80;;;;;;5093521;28;20386;-65
2022/05/17 01:11:19;;;;;;;1.98;1.30;;;23.90;52.70;;;;;;5093410;28;20795;-65
2022/05/17 01:16:29;;;;;;;1.77;1.40;;;23.90;52.70;;;;;;5093668;28;20434;-65
2022/05/17 01:18:56;;;;;;;3.17;1.40;;;23.90;52.60;;;;;;5093282;28;20390;-65
2022/05/17 01:21:22;;;;;;;2.65;1.35;;;23.90;52.60;;;;;;5093286;28;20465;-65
2022/05/17 01:23:48;;;;;;;2.23;1.40;;;23.90;52.60;;;;;;5093012;28;20474;-65
2022/05/17 01:26:20;;;;;;;1.85;1.33;;;23.90;52.60;;;;;;5092970;28;20382;-65
2022/05/17 01:28:46;;;;;;;2.60;1.40;;;23.90;52.60;;;;;;5093165;28;20390;-65
2022/05/17 01:31:11;;;;;;;2.08;1.40;;;23.90;52.60;;;;;;5093056;28;20386;-65
2022/05/17 01:33:38;;;;;;;2.35;1.45;;;23.90;52.70;;;;;;5091689;28;20405;-65
2022/05/17 01:36:08;;;;;;;1.83;1.40;;;23.90;52.70;;;;;;5092548;28;20386;-64
2022/05/17 01:38:35;;;;;;;2.05;1.23;;;23.90;52.70;;;;;;5092900;28;20417;-65
2022/05/17 01:41:02;;;;;;;2.03;1.40;;;23.80;52.60;;;;;;5091632;28;20398;-65
2022/05/17 01:43:28;;;;;;;2.03;1.20;;;23.80;52.60;;;;;;5092824;28;20418;-65
2022/05/17 01:45:53;;;;;;;1.67;1.15;;;23.80;52.60;;;;;;5092341;28;20388;-64
2022/05/17 01:48:19;;;;;;;2.63;1.40;;;23.80;52.60;;;;;;5092811;28;20378;-65
2022/05/17 01:50:45;;;;;;;1.60;1.20;;;23.80;52.70;;;;;;5091251;28;20919;-65
2022/05/17 01:53:11;;;;;;;2.25;1.40;;;23.80;52.60;;;;;;5092630;28;20420;-65
2022/05/17 01:55:37;;;;;;;2.55;1.30;;;23.80;52.60;;;;;;5092533;28;20382;-65
2022/05/17 01:58:03;;;;;;;1.70;1.30;;;23.80;52.60;;;;;;5092174;28;20390;-65
2022/05/17 02:00:30;;;;;;;1.80;1.27;;;23.80;52.60;;;;;;5091059;28;20414;-65
2022/05/17 02:02:55;;;;;;;2.58;1.35;;;23.80;52.60;;;;;;5092538;28;20394;-65
2022/05/17 02:05:24;;;;;;;1.77;1.30;;;23.80;52.50;;;;;;5092510;28;20442;-66
2022/05/17 02:07:50;;;;;;;2.33;1.30;;;23.80;52.50;;;;;;5092143;28;20394;-65
2022/05/17 02:10:17;;;;;;;1.70;1.30;;;23.80;52.60;;;;;;5092143;28;20382;-65
2022/05/17 02:12:43;;;;;;;1.67;1.27;;;23.80;52.60;;;;;;5091360;28;20418;-65
2022/05/17 02:15:09;;;;;;;1.67;1.38;;;23.80;52.60;;;;;;5092287;28;20754;-65
2022/05/17 02:17:35;;;;;;;2.22;1.00;;;23.80;52.50;;;;;;5092156;28;20874;-65
2022/05/17 02:20:03;;;;;;;2.08;1.30;;;23.80;52.60;;;;;;5091753;28;20392;-65
2022/05/17 02:22:29;;;;;;;1.80;1.30;;;23.80;52.60;;;;;;5091960;28;20374;-64
2022/05/17 02:24:55;;;;;;;2.25;1.48;;;23.80;52.60;;;;;;5092114;28;20382;-65
2022/05/17 02:27:20;;;;;;;2.30;1.30;;;23.80;52.60;;;;;;5092133;28;20390;-65
2022/05/17 02:29:46;;;;;;;2.17;1.58;;;23.80;52.60;;;;;;5091794;28;20870;-65
2022/05/17 02:32:14;;;;;;;2.08;1.40;;;23.70;52.50;;;;;;5091660;28;20418;-65
2022/05/17 02:34:40;;;;;;;2.25;1.30;;;23.70;52.50;;;;;;5091881;28;20374;-65
2022/05/17 02:37:06;;;;;;;2.63;1.48;;;23.70;52.50;;;;;;5091881;28;20485;-64
2022/05/17 02:39:32;;;;;;;2.58;1.23;;;23.70;52.50;;;;;;5091852;28;20507;-65
2022/05/17 02:41:58;;;;;;;2.50;1.50;;;23.70;52.50;;;;;;5091414;28;20390;-65
2022/05/17 02:44:24;;;;;;;2.10;1.30;;;23.70;52.50;;;;;;5091764;28;20385;-65
2022/05/17 02:46:50;;;;;;;1.95;1.30;;;23.70;52.30;;;;;;5091769;28;20386;-65
2022/05/17 02:49:15;;;;;;;2.15;1.20;;;23.70;52.30;;;;;;5091745;28;20716;-65
2022/05/17 02:51:42;;;;;;;2.20;1.40;;;23.70;52.30;;;;;;5091448;28;20421;-65
2022/05/17 02:54:10;;;;;;;2.35;1.40;;;23.70;52.40;;;;;;5091337;28;20851;-65
2022/05/17 02:56:36;;;;;;;2.22;1.35;;;23.70;52.40;;;;;;5091576;28;20485;-65
2022/05/17 02:59:02;;;;;;;2.08;1.30;;;23.70;52.50;;;;;;5091619;28;20382;-65
2022/05/17 03:01:28;;;;;;;2.45;1.42;;;23.70;52.40;;;;;;5091506;28;20397;-65
2022/05/17 03:03:54;;;;;;;2.57;1.50;;;23.70;52.50;;;;;;5091426;28;20457;-65
2022/05/17 03:06:20;;;;;;;2.00;1.33;;;23.70;52.50;;;;;;5091425;28;20386;-65
2022/05/17 03:08:45;;;;;;;4.83;1.50;;;23.70;52.40;;;;;;5091359;28;20870;-66
2022/05/17 03:11:11;;;;;;;5.65;1.85;;;23.70;53.80;;;;;;5091325;28;20386;-65
2022/05/17 03:13:37;;;;;;;4.53;1.75;;;23.70;55.50;;;;;;5091177;28;20905;-65
2022/05/17 03:16:04;;;;;;;3.80;1.70;;;23.80;55.80;;;;;;5091299;28;20374;-65
2022/05/17 03:18:29;;;;;;;4.55;1.73;;;23.80;56.40;;;;;;5091457;28;20755;-65
2022/05/17 03:20:55;;;;;;;6.25;1.70;;;23.80;55.70;;;;;;5091378;28;20488;-64
2022/05/17 03:23:21;;;;;;;5.17;1.70;;;23.90;55.60;;;;;;5091338;28;20473;-64
2022/05/17 03:25:46;;;;;;;3.45;1.70;;;23.90;55.60;;;;;;5093816;28;20476;-64
2022/05/17 03:28:13;;;;;;;3.93;1.83;;;23.90;55.50;;;;;;5095082;28;20393;-65
2022/05/17 03:30:42;;;;;;;4.72;1.60;;;23.90;55.50;;;;;;5095253;28;20386;-65
2022/05/17 03:33:08;;;;;;;3.90;1.60;;;23.90;55.50;;;;;;5095397;28;20410;-65
2022/05/17 03:35:35;;;;;;;5.47;1.80;;;23.90;55.50;;;;;;5095227;28;20407;-65
2022/05/17 03:38:01;;;;;;;3.80;1.77;;;23.90;55.50;;;;;;5095022;28;20386;-64
2022/05/17 03:40:26;;;;;;;3.33;1.67;;;23.90;55.50;;;;;;5095163;28;20877;-65
2022/05/17 03:42:52;;;;;;;3.80;1.60;;;23.90;55.60;;;;;;5095119;28;20389;-65
2022/05/17 03:45:18;;;;;;;6.10;1.83;;;23.90;55.60;;;;;;5095130;28;20398;-65
2022/05/17 03:47:43;;;;;;;5.35;1.73;;;23.90;55.60;;;;;;5094976;28;20393;-65
2022/05/17 03:50:10;;;;;;;5.67;1.60;;;23.90;55.70;;;;;;5094362;28;20463;-65
2022/05/17 03:52:36;;;;;;;3.08;1.60;;;23.90;55.80;;;;;;5094883;28;20504;-65
2022/05/17 03:55:06;;;;;;;4.88;1.90;;;24.00;55.80;;;;;;5094906;28;20810;-65
2022/05/17 03:57:32;;;;;;;3.40;1.67;;;24.00;55.70;;;;;;5094785;28;20413;-66
2022/05/17 03:59:58;;;;;;;3.90;1.60;;;23.90;55.00;;;;;;5094646;28;20386;-65
2022/05/17 04:02:24;;;;;;;3.13;1.83;;;23.90;54.60;;;;;;5094620;28;20436;-64
2022/05/17 04:04:55;;;;;;;6.47;1.75;;;23.80;54.20;;;;;;5094824;28;20477;-65
2022/05/17 04:07:21;;;;;;;6.25;2.17;;;23.80;54.10;;;;;;5094722;28;20394;-64
2022/05/17 04:09:47;;;;;;;4.35;1.80;;;23.80;53.70;;;;;;5094400;28;20396;-65
2022/05/17 04:12:13;;;;;;;4.80;2.03;;;23.80;53.60;;;;;;5093816;28;20414;-64
2022/05/17 04:14:39;;;;;;;5.35;1.98;;;23.70;53.60;;;;;;5094652;28;20382;-65
2022/05/17 04:17:05;;;;;;;9.38;2.10;;;23.70;53.80;;;;;;5094530;28;20393;-65
2022/05/17 04:19:31;;;;;;;9.13;2.30;;;23.70;54.00;;;;;;5094279;28;20389;-65
2022/05/17 04:22:00;;;;;;;5.85;2.00;;;23.70;53.60;;;;;;5094125;28;20461;-64
2022/05/17 04:24:26;;;;;;;4.28;2.10;;;23.70;53.30;;;;;;5094315;28;20386;-64
2022/05/17 04:26:53;;;;;;;4.53;1.98;;;23.70;53.30;;;;;;5094316;28;20439;-65
2022/05/17 04:29:19;;;;;;;4.50;2.07;;;23.70;53.30;;;;;;5094386;28;20390;-65
2022/05/17 04:31:45;;;;;;;5.28;2.08;;;23.70;53.30;;;;;;5095525;28;20413;-65
2022/05/17 04:34:10;;;;;;;4.47;1.92;;;23.70;53.20;;;;;;5103632;28;20428;-65
2022/05/17 04:36:36;;;;;;;2.90;1.90;;;23.70;53.30;;;;;;5100132;28;20387;-65
2022/05/17 04:39:03;;;;;;;4.17;1.87;;;23.70;53.30;;;;;;5110788;28;20980;-65
2022/05/17 04:41:28;;;;;;;2.40;1.63;;;23.70;53.20;;;;;;5093956;28;20435;-65
2022/05/17 04:43:54;;;;;;;2.90;1.70;;;23.70;53.30;;;;;;5093894;28;20738;-65
2022/05/17 04:46:21;;;;;;;3.63;1.80;;;23.70;53.10;;;;;;5095228;28;20389;-65
2022/05/17 04:48:47;;;;;;;2.67;1.77;;;23.70;53.10;;;;;;5105417;28;20408;-65
2022/05/17 04:51:14;;;;;;;3.30;1.70;;;23.70;53.10;;;;;;5103493;28;20467;-65
2022/05/17 04:53:41;;;;;;;3.05;1.70;;;23.60;53.00;;;;;;5105021;28;20398;-65
2022/05/17 04:56:08;;;;;;;3.55;1.60;;;23.60;53.20;;;;;;5110425;28;20377;-65
2022/05/17 04:58:34;;;;;;;3.30;1.70;;;23.60;52.90;;;;;;5114770;28;20467;-65
2022/05/17 05:01:01;;;;;;;2.97;1.60;;;23.60;52.90;;;;;;5112486;28;20385;-64
2022/05/17 05:03:27;;;;;;;2.75;1.75;;;23.60;52.80;;;;;;5113870;28;20445;-65
2022/05/17 05:05:53;;;;;;;2.50;1.70;;;23.60;53.00;;;;;;5113874;28;20408;-64
2022/05/17 05:08:19;;;;;;;2.83;1.70;;;23.60;52.90;;;;;;5113637;28;20387;-64
2022/05/17 05:10:45;;;;;;;3.88;1.70;;;23.60;52.90;;;;;;5113847;28;20372;-65
2022/05/17 05:13:19;;;;;;;3.17;1.80;;;23.60;52.80;;;;;;5114344;28;20416;-64
2022/05/17 05:15:45;;;;;;;3.58;1.92;;;23.60;53.30;;;;;;5113827;28;20781;-65
2022/05/17 05:18:11;;;;;;;3.70;1.70;;;23.60;53.20;;;;;;5113422;28;20856;-66
2022/05/17 05:20:38;;;;;;;3.10;1.77;;;23.60;53.50;;;;;;5112256;28;20418;-65
2022/05/17 05:23:05;;;;;;;3.93;1.80;;;23.60;53.20;;;;;;5113579;28;20416;-64
2022/05/17 05:25:31;;;;;;;5.83;1.90;;;23.60;53.20;;;;;;5113519;28;20392;-65
2022/05/17 05:27:58;;;;;;;5.47;2.00;;;23.60;54.20;;;;;;5113301;28;20809;-63
2022/05/17 05:30:24;;;;;;;5.20;1.90;;;23.60;55.40;;;;;;5113271;28;20388;-66
2022/05/17 05:32:49;;;;;;;4.75;2.08;;;23.70;55.30;;;;;;5113864;28;20413;-64
2022/05/17 05:35:17;;;;;;;3.80;1.83;;;23.70;55.20;;;;;;5107028;28;20787;-64
2022/05/17 05:37:43;;;;;;;3.40;1.88;;;23.70;55.10;;;;;;5088135;28;20439;-64
2022/05/17 05:40:11;;;;;;;4.03;1.95;;;23.70;54.50;;;;;;5092561;28;20406;-64
2022/05/17 05:42:38;;;;;;;4.22;1.90;;;23.70;54.20;;;;;;5092671;28;20405;-64
2022/05/17 05:45:05;;;;;;;3.88;1.80;;;23.60;54.00;;;;;;5092813;28;20375;-64
2022/05/17 05:47:31;;;;;;;4.40;1.77;;;23.60;53.80;;;;;;5092408;28;20390;-64
2022/05/17 05:49:56;;;;;;;3.60;1.87;;;23.60;53.70;;;;;;5090859;28;20415;-64
2022/05/17 05:52:22;;;;;;;3.72;1.90;;;23.60;53.70;;;;;;5074425;28;20437;-66
2022/05/17 05:54:48;;;;;;;2.80;1.80;;;23.60;53.60;;;;;;5073868;28;20872;-65
2022/05/17 05:57:13;;;;;;;3.42;1.98;;;23.60;53.50;;;;;;5075672;28;20376;-68
2022/05/17 05:59:39;;;;;;;3.23;1.93;;;23.60;53.80;;;;;;5070535;28;20755;-65
2022/05/17 06:02:06;;;;;;;3.72;1.98;;;23.60;53.60;;;;;;5071792;28;20376;-65
2022/05/17 06:04:32;;;;;;;4.30;2.25;;;23.60;54.30;;;;;;5071925;28;20392;-65
2022/05/17 06:06:58;;;;;;;4.28;1.90;;;23.60;53.80;;;;;;5071866;28;20384;-65
2022/05/17 06:09:25;;;;;;;4.22;2.00;;;23.60;53.50;;;;;;5071644;28;20482;-64
2022/05/17 06:11:50;;;;;;;4.63;2.10;;;23.60;53.60;;;;;;5071434;28;20416;-65
2022/05/17 06:14:16;;;;;;;3.40;2.00;;;23.60;53.80;;;;;;5068336;28;21233;-65
2022/05/17 06:16:42;;;;;;;3.03;2.03;;;23.60;53.30;;;;;;5071095;28;20400;-65
2022/05/17 06:19:08;;;;;;;3.47;1.90;;;23.60;53.30;;;;;;5071532;28;20387;-65
2022/05/17 06:21:34;;;;;;;3.37;2.03;;;23.60;53.20;;;;;;5071398;28;20882;-65
2022/05/17 06:23:59;;;;;;;3.15;1.85;;;23.60;53.50;;;;;;5071233;28;20384;-65
2022/05/17 06:26:25;;;;;;;2.80;1.73;;;23.60;53.00;;;;;;5071272;28;20388;-65
2022/05/17 06:28:51;;;;;;;3.07;1.90;;;23.60;53.00;;;;;;5071453;28;20398;-64
2022/05/17 06:31:17;;;;;;;3.38;2.15;;;23.60;53.00;;;;;;5071567;28;20388;-65
2022/05/17 06:33:43;;;;;;;3.33;2.00;;;23.60;53.00;;;;;;5071496;28;20868;-65
2022/05/17 06:36:08;;;;;;;3.07;1.80;;;23.60;53.00;;;;;;5071001;28;20471;-65
2022/05/17 06:38:34;;;;;;;3.97;2.10;;;23.60;53.00;;;;;;5071123;28;20445;-65
2022/05/17 06:41:00;;;;;;;2.45;1.70;;;23.60;53.00;;;;;;5071639;28;20409;-64
2022/05/17 06:43:26;;;;;;;3.67;2.03;;;23.60;52.80;;;;;;5071440;28;20384;-64
2022/05/17 06:45:52;;;;;;;3.15;1.83;;;23.60;53.10;;;;;;5070864;28;20403;-64
2022/05/17 06:48:19;;;;;;;3.90;2.00;;;23.60;53.10;;;;;;5067814;28;21228;-64
2022/05/17 06:50:45;;;;;;;3.77;1.93;;;23.60;53.00;;;;;;5078692;28;20416;-64
2022/05/17 06:53:11;;;;;;;3.90;1.85;;;23.60;53.00;;;;;;5091428;28;20414;-65
2022/05/17 06:55:37;;;;;;;3.60;1.83;;;23.60;52.90;;;;;;5091386;28;20385;-65
2022/05/17 06:58:03;;;;;;;3.15;2.00;;;23.60;53.00;;;;;;5091218;28;20416;-64
2022/05/17 07:00:29;;;;;;;3.20;2.00;;;23.60;52.80;;;;;;5090173;28;20379;-65
2022/05/17 07:02:55;;;;;;;2.88;1.80;;;23.60;52.80;;;;;;5090942;28;20389;-65
2022/05/17 07:05:20;;;;;;;3.28;1.85;;;23.60;52.80;;;;;;5090372;28;20950;-64
2022/05/17 07:07:46;;;;;;;2.90;1.90;;;23.60;52.90;;;;;;5091133;28;20894;-65
2022/05/17 07:13:09;;;;;;;2.38;1.80;;;23.60;52.80;;;;;;5091185;28;20478;-65
2022/05/17 07:15:40;;;;;;;2.53;1.80;;;23.60;52.80;;;;;;5091267;28;20382;-65
2022/05/17 07:18:07;;;;;;;3.38;2.10;;;23.60;52.70;;;;;;5091764;28;20386;-65
2022/05/17 07:20:33;;;;;;;2.90;2.27;;;23.50;52.70;;;;;;5090669;28;20428;-64
2022/05/17 07:22:59;;;;;;;3.17;2.00;;;23.50;52.70;;;;;;5092560;28;20443;-65
2022/05/17 07:25:24;;;;;;;2.88;2.10;;;23.60;52.80;;;;;;5091092;28;20379;-65
2022/05/17 07:27:50;;;;;;;3.43;2.10;;;23.50;52.70;;;;;;5091233;28;20395;-66
2022/05/17 07:30:16;;;;;;;2.92;2.10;;;23.50;52.70;;;;;;5090638;28;20378;-65
2022/05/17 07:32:41;;;;;;;3.67;2.10;;;23.50;52.70;;;;;;5090878;28;20406;-65
2022/05/17 07:35:07;;;;;;;3.15;2.10;;;23.60;52.70;;;;;;5091355;28;20386;-65
2022/05/17 07:37:34;;;;;;;2.90;2.03;;;23.60;52.80;;;;;;5090928;28;20394;-65
2022/05/17 07:40:00;;;;;;;2.97;2.30;;;23.50;52.70;;;;;;5090893;28;20386;-66
2022/05/17 07:42:26;;;;;;;2.90;2.08;;;23.50;52.80;;;;;;5090379;28;20480;-66
2022/05/17 07:44:52;;;;;;;3.22;2.00;;;23.50;52.80;;;;;;5092119;28;20480;-66
2022/05/17 07:47:17;;;;;;;4.47;2.38;;;23.50;52.70;;;;;;5092859;28;20396;-65
2022/05/17 07:49:43;;;;;;;3.13;2.20;;;23.50;53.30;;;;;;5090829;28;20397;-65
2022/05/17 07:52:10;;;;;;;2.45;2.10;;;23.50;53.00;;;;;;5103051;28;20408;-66
2022/05/17 07:54:37;;;;;;;3.25;2.30;;;23.50;52.70;;;;;;5111335;28;20437;-66
2022/05/17 07:57:04;;;;;;;3.40;2.50;;;23.50;52.70;;;;;;5097190;28;20393;-66
2022/05/17 07:59:30;;;;;;;4.25;2.50;;;23.50;52.70;;;;;;5090979;28;21039;-64
2022/05/17 08:01:56;;;;;;;3.33;2.30;;;23.50;52.80;;;;;;5106321;28;20396;-64
2022/05/17 08:04:23;;;;;;;3.60;2.40;;;23.50;52.70;;;;;;5110906;28;20388;-64
2022/05/17 08:06:49;;;;;;;3.60;2.30;;;23.50;52.70;;;;;;5110999;28;20384;-64
2022/05/17 08:09:15;;;;;;;3.78;2.20;;;23.50;52.80;;;;;;5111108;28;20380;-64
2022/05/17 08:11:41;;;;;;;3.10;2.17;;;23.50;52.80;;;;;;5112568;28;21060;-64
2022/05/17 08:14:08;;;;;;;3.55;2.20;;;23.50;52.70;;;;;;5114691;28;20387;-64
2022/05/17 08:16:33;;;;;;;3.33;1.90;;;23.50;52.70;;;;;;5114398;28;20384;-64
2022/05/17 08:18:59;;;;;;;4.53;2.42;;;23.50;52.80;;;;;;5114604;28;20423;-64
2022/05/17 08:21:25;;;;;;;3.87;2.50;;;23.50;52.80;;;;;;5114757;28;20475;-64
2022/05/17 08:23:50;;;;;;;2.60;2.10;;;23.50;52.80;;;;;;5114338;28;20383;-64
2022/05/17 08:29:00;;;;;;;2.95;2.28;;;23.50;52.80;;;;;;5114454;28;20375;-65
2022/05/17 08:31:27;;;;;;;3.47;2.30;;;23.50;52.80;;;;;;5109987;28;20480;-64
2022/05/17 08:33:52;;;;;;;4.15;2.60;;;23.50;52.80;;;;;;5094077;28;20394;-65
2022/05/17 08:36:18;;;;;;;3.50;2.30;;;23.50;52.70;;;;;;5093953;28;20872;-65
2022/05/17 08:38:47;;;;;;;3.40;2.40;;;23.50;52.80;;;;;;5093472;28;20390;-65
2022/05/17 08:41:24;;;;;;;3.55;2.40;;;23.50;52.90;;;;;;5093953;28;20378;-65
2022/05/17 08:43:57;;;;;;;3.53;2.45;;;23.50;52.90;;;;;;5093994;28;20402;-65
2022/05/17 08:46:32;;;;;;;3.10;2.40;;;23.50;53.00;;;;;;5093560;28;20397;-65
2022/05/17 08:49:19;;;;;;;3.50;2.50;;;23.50;52.90;;;;;;5093392;28;20413;-65
2022/05/17 08:51:52;;;;;;;3.90;2.40;;;23.50;53.00;;;;;;5093480;28;20445;-65
2022/05/17 08:54:23;;;;;;;3.80;2.60;;;23.50;53.10;;;;;;5093335;28;20390;-65
2022/05/17 08:57:02;;;;;;;3.67;2.58;;;23.50;53.00;;;;;;5094242;28;20387;-65
2022/05/17 08:59:30;;;;;;;3.47;2.60;;;23.50;53.10;;;;;;5093344;28;20401;-65
2022/05/17 09:02:06;;;;;;;3.65;2.70;;;23.50;53.00;;;;;;5093692;28;20414;-65
2022/05/17 09:04:58;;;;;;;3.20;2.58;;;23.60;53.00;;;;;;5093376;28;20451;-65
2022/05/17 09:07:26;;;;;;;2.80;2.35;;;23.60;53.00;;;;;;5093421;28;20382;-64
2022/05/17 09:09:56;;;;;;;3.30;2.55;;;23.60;53.00;;;;;;5093562;28;20878;-65
2022/05/17 09:12:36;;;;;;;3.15;2.70;;;23.60;53.00;;;;;;5091507;28;20410;-65
2022/05/17 09:15:03;;;;;;;2.95;2.65;;;23.60;52.90;;;;;;5093108;28;20716;-65
2022/05/17 09:17:30;;;;;;;3.72;2.97;;;23.60;53.10;;;;;;5093155;28;20370;-65
2022/05/17 09:19:56;;;;;;;3.75;2.67;;;23.60;52.90;;;;;;5093319;28;20385;-65
2022/05/17 09:22:23;;;;;;;3.25;2.78;;;23.60;52.90;;;;;;5092299;28;20423;-66
2022/05/17 09:25:00;;;;;;;3.50;2.80;;;23.60;52.90;;;;;;5089211;28;20406;-65
2022/05/17 09:27:39;;;;;;;2.85;2.55;;;23.60;52.90;;;;;;5092157;28;20394;-65
2022/05/17 09:30:31;;;;;;;3.33;2.72;;;23.60;52.90;;;;;;5091256;28;20385;-65
2022/05/17 09:33:14;;;;;;;5.03;2.85;;;23.60;53.20;;;;;;5090485;28;20880;-64
2022/05/17 09:35:57;;;;;;;3.22;2.92;;;23.60;53.00;;;;;;5085244;28;20637;-65
2022/05/17 09:38:24;;;;;;;3.65;3.03;;;23.60;53.10;;;;;;5091282;28;20378;-65
2022/05/17 09:40:53;;;;;;;3.40;2.53;;;23.70;53.30;;;;;;5090674;28;20900;-65
2022/05/17 09:43:35;;;;;;;3.33;2.90;;;23.70;53.00;;;;;;5091216;28;20745;-64
2022/05/17 09:46:10;;;;;;;3.60;2.60;;;23.70;53.10;;;;;;5092663;28;20528;-65
2022/05/17 09:54:34;;;;;;;3.85;2.60;;;23.70;53.00;;;;;;5092264;28;20393;-65
2022/05/17 09:57:29;;;;;;;3.75;2.70;;;23.70;53.10;;;;;;5092593;28;20477;-65
2022/05/17 10:00:12;;;;;;;3.10;2.80;;;23.70;52.90;;;;;;5092507;28;20390;-65
2022/05/17 10:02:55;;;;;;;3.78;2.65;;;23.70;53.00;;;;;;5092294;28;20386;-65
2022/05/17 10:05:43;;;;;;;4.20;2.90;;;23.70;52.80;;;;;;5092385;28;20394;-65
2022/05/17 10:08:14;;;;;;;3.55;2.80;;;23.70;52.90;;;;;;5092353;28;20374;-65
2022/05/17 10:10:44;;;;;;;3.63;2.83;;;23.80;52.70;;;;;;5091976;28;20378;-65
2022/05/17 10:13:17;;;;;;;3.47;2.70;;;23.70;52.70;;;;;;5086179;28;20958;-65
2022/05/17 10:15:48;;;;;;;4.43;2.65;;;23.80;52.70;;;;;;5076243;28;20874;-64
2022/05/17 10:18:40;;;;;;;3.60;2.90;;;23.80;52.80;;;;;;5092146;28;20430;-64
2022/05/17 10:21:27;;;;;;;5.82;2.60;;;23.80;52.70;;;;;;5092155;28;20408;-64
2022/05/17 10:24:04;;;;;;;6.32;2.88;;;23.80;52.40;;;;;;5091836;28;20394;-64
2022/05/17 10:26:35;;;;;;;6.70;2.88;;;23.80;53.20;;;;;;5091497;28;20960;-64
2022/05/17 10:29:09;;;;;;;4.30;2.83;;;23.80;52.90;;;;;;5091768;28;20400;-64
2022/05/17 10:31:53;;;;;;;5.72;3.00;;;23.80;52.50;;;;;;5091776;28;20431;-64
2022/05/17 10:34:38;;;;;;;6.43;2.80;;;23.80;52.60;;;;;;5091079;28;20386;-64
2022/05/17 10:37:12;;;;;;;4.20;2.35;;;23.80;52.60;;;;;;5091904;28;20737;-64
2022/05/17 10:39:56;;;;;;;5.47;2.80;;;23.80;52.70;;;;;;5091893;28;20398;-64
2022/05/17 10:42:23;;;;;;;3.60;2.70;;;23.80;52.80;;;;;;5091070;28;20382;-64
2022/05/17 10:44:53;;;;;;;4.50;2.70;;;23.80;52.50;;;;;;5091681;28;20443;-65
2022/05/17 10:47:37;;;;;;;4.10;2.90;;;23.80;52.70;;;;;;5091786;28;20886;-64
2022/05/17 10:50:19;;;;;;;4.30;2.70;;;23.80;52.80;;;;;;5091566;28;20528;-65
2022/05/17 10:52:50;;;;;;;5.50;2.70;;;23.80;52.90;;;;;;5091275;28;20420;-64
2022/05/17 10:55:35;;;;;;;11.52;3.08;;;23.80;52.80;;;;;;5089908;28;20410;-64
2022/05/17 10:58:41;;;;;;;6.70;3.20;;;23.80;53.50;;;;;;5091805;28;20390;-65
2022/05/17 11:01:28;;;;;;;6.70;2.90;;;23.90;53.30;;;;;;5091716;28;20382;-65
2022/05/17 11:03:54;;;;;;;4.30;2.83;;;23.90;53.70;;;;;;5091578;28;20755;-64
2022/05/17 11:06:32;;;;;;;7.10;2.97;;;24.00;53.40;;;;;;5089440;28;20382;-64
2022/05/17 11:09:01;;;;;;;3.70;2.85;;;24.00;53.60;;;;;;5090440;28;20534;-64
2022/05/17 11:11:37;;;;;;;5.70;2.80;;;24.00;53.70;;;;;;5090855;28;20467;-65
2022/05/17 11:14:08;;;;;;;5.03;2.77;;;24.00;53.70;;;;;;5088865;28;20613;-64
2022/05/17 11:17:13;;;;;;;3.90;2.70;;;24.00;53.50;;;;;;5087144;28;20378;-64
2022/05/17 11:19:51;;;;;;;5.22;2.80;;;24.00;53.90;;;;;;5008453;28;20439;-64
2022/05/17 11:22:24;;;;;;;7.28;3.03;;;24.00;53.20;;;;;;5082787;28;20386;-64
2022/05/17 11:25:11;;;;;;;6.00;2.75;;;24.00;52.90;;;;;;5088723;28;20754;-65
2022/05/17 11:27:56;;;;;;;4.57;2.65;;;24.00;52.90;;;;;;5088432;28;20386;-64
2022/05/17 11:30:26;;;;;;;4.05;3.05;;;24.00;52.80;;;;;;5088840;28;20386;-65
2022/05/17 11:33:30;;;;;;;4.80;2.67;;;24.00;52.80;;;;;;5087510;28;20422;-64
2022/05/17 11:36:10;;;;;;;4.22;3.00;;;24.00;52.70;;;;;;5088524;28;20712;-65
2022/05/17 11:38:36;;;;;;;5.32;2.72;;;24.00;52.80;;;;;;5090841;28;20393;-64
2022/05/17 11:41:34;;;;;;;4.30;2.57;;;24.10;52.80;;;;;;5088862;28;20394;-64
2022/05/17 11:44:08;;;;;;;4.43;2.55;;;24.10;52.70;;;;;;5090859;28;20390;-64
2022/05/17 11:46:50;;;;;;;4.32;2.83;;;24.00;52.50;;;;;;5094319;28;20381;-64
2022/05/17 11:49:15;;;;;;;3.50;2.70;;;24.10;52.40;;;;;;5095085;28;20424;-64
2022/05/17 11:51:59;;;;;;;5.82;2.92;;;24.10;52.40;;;;;;5094744;28;20438;-64
2022/05/17 11:54:42;;;;;;;4.30;2.55;;;24.10;52.30;;;;;;5094348;28;20433;-64
2022/05/17 11:57:37;;;;;;;5.72;2.70;;;24.10;52.40;;;;;;5094980;28;20374;-64
2022/05/17 12:00:30;;;;;;;5.70;2.70;;;24.00;52.60;;;;;;5094685;28;20619;-64
2022/05/17 12:02:59;;;;;;;7.65;3.00;;;24.00;52.90;;;;;;5086413;28;20482;-64
2022/05/17 12:05:55;;;;;;;6.28;3.03;;;24.00;52.60;;;;;;5094583;28;20427;-64
2022/05/17 12:08:27;;;;;;;9.70;3.28;;;24.00;52.50;;;;;;5053926;28;20919;-64
2022/05/17 12:11:11;;;;;;;6.20;2.95;;;24.10;52.30;;;;;;5079231;28;20878;-64
2022/05/17 12:13:53;;;;;;;7.38;2.90;;;24.10;52.40;;;;;;5094320;28;20755;-64
2022/05/17 12:16:23;;;;;;;7.38;2.80;;;24.10;52.20;;;;;;5094068;28;20370;-64
2022/05/17 12:18:53;;;;;;;5.53;2.75;;;24.10;52.20;;;;;;5094098;28;20730;-64
2022/05/17 12:21:28;;;;;;;7.22;3.10;;;24.10;52.20;;;;;;5086838;28;20489;-65
2022/05/17 12:24:25;;;;;;;5.60;2.95;;;24.10;52.10;;;;;;5070195;28;20391;-64
2022/05/17 12:27:14;;;;;;;6.32;2.90;;;24.10;52.10;;;;;;5071985;28;20752;-65
2022/05/17 12:32:35;;;;;;;5.47;2.90;;;24.20;52.40;;;;;;5070990;28;20461;-65
2022/05/17 12:35:01;;;;;;;5.93;2.92;;;24.20;52.30;;;;;;5072514;28;20517;-64
2022/05/17 12:37:28;;;;;;;5.43;2.90;;;24.20;52.20;;;;;;5072546;28;20486;-65
2022/05/17 12:43:03;;;;;;;5.60;2.77;;;24.20;52.00;;;;;;5069879;28;20507;-65
2022/05/17 12:45:31;;;;;;;5.47;2.83;;;24.20;51.90;;;;;;5071410;28;20372;-64
2022/05/17 12:47:59;;;;;;;5.45;2.97;;;24.20;52.00;;;;;;5069681;28;20391;-65
2022/05/17 12:50:42;;;;;;;5.43;2.92;;;24.20;51.90;;;;;;5076688;28;20406;-64
2022/05/17 12:53:24;;;;;;;7.33;3.00;;;24.20;51.90;;;;;;5090846;28;20477;-64
2022/05/17 12:56:05;;;;;;;7.13;2.70;;;24.20;51.90;;;;;;5088745;28;20889;-65
2022/05/17 12:58:33;;;;;;;4.50;2.67;;;24.20;51.80;;;;;;5089090;28;20386;-65
2022/05/17 13:00:59;;;;;;;5.35;2.75;;;24.30;51.80;;;;;;5091189;28;20374;-64
2022/05/17 13:03:28;;;;;;;4.40;2.60;;;24.30;51.80;;;;;;5092591;28;20375;-64
2022/05/17 13:05:55;;;;;;;4.82;2.90;;;24.30;51.70;;;;;;5093749;28;20393;-64
2022/05/17 13:08:30;;;;;;;5.93;2.85;;;24.30;51.60;;;;;;5092654;28;20382;-64
2022/05/17 13:11:12;;;;;;;4.50;2.55;;;24.30;51.70;;;;;;5090313;28;20390;-64
2022/05/17 13:13:41;;;;;;;3.63;2.67;;;24.30;51.60;;;;;;5093013;28;20413;-64
2022/05/17 13:16:19;;;;;;;4.70;2.53;;;24.30;51.60;;;;;;5093444;28;20523;-64
2022/05/17 13:18:57;;;;;;;5.00;2.70;;;24.30;51.50;;;;;;5091838;28;20378;-65
2022/05/17 13:21:36;;;;;;;5.55;2.60;;;24.30;51.40;;;;;;5090918;28;20390;-64
2022/05/17 13:24:08;;;;;;;3.97;2.75;;;24.30;51.40;;;;;;5093263;28;20889;-64